sensor_id;sensor_type;location;lat;lon;timestamp;P1;durP1;ratioP1;P2;durP2;ratioP2
73585;SDS011;61865;50.232;18.614;2024-02-21T00:00:58;62.08;;;20.98;;
73585;SDS011;61865;50.232;18.614;2024-02-21T00:03:23;37.47;;;16.75;;
73585;SDS011;61865;50.232;18.614;2024-02-21T00:05:45;33.35;;;14.77;;
73585;SDS011;61865;50.232;18.614;2024-02-21T00:08:08;32.50;;;14.48;;
73585;SDS011;61865;50.232;18.614;2024-02-21T00:10:33;24.10;;;13.60;;
73585;SDS011;61865;50.232;18.614;2024-02-21T00:12:56;28.88;;;10.15;;
73585;SDS011;61865;50.232;18.614;2024-02-21T00:15:19;24.52;;;9.77;;
73585;SDS011;61865;50.232;18.614;2024-02-21T00:17:43;19.58;;;9.48;;
73585;SDS011;61865;50.232;18.614;2024-02-21T00:20:06;17.88;;;7.50;;
73585;SDS011;61865;50.232;18.614;2024-02-21T00:22:28;19.58;;;7.13;;
73585;SDS011;61865;50.232;18.614;2024-02-21T00:24:53;20.38;;;6.15;;
73585;SDS011;61865;50.232;18.614;2024-02-21T00:27:17;23.40;;;8.13;;
73585;SDS011;61865;50.232;18.614;2024-02-21T00:29:39;20.35;;;7.85;;
73585;SDS011;61865;50.232;18.614;2024-02-21T00:32:02;25.02;;;8.43;;
73585;SDS011;61865;50.232;18.614;2024-02-21T00:34:24;15.38;;;6.88;;
73585;SDS011;61865;50.232;18.614;2024-02-21T00:36:46;22.05;;;8.73;;
73585;SDS011;61865;50.232;18.614;2024-02-21T00:39:09;20.13;;;7.22;;
73585;SDS011;61865;50.232;18.614;2024-02-21T00:41:32;17.75;;;6.90;;
73585;SDS011;61865;50.232;18.614;2024-02-21T00:43:56;18.75;;;7.90;;
73585;SDS011;61865;50.232;18.614;2024-02-21T00:46:18;19.33;;;8.20;;
73585;SDS011;61865;50.232;18.614;2024-02-21T00:48:40;22.92;;;8.32;;
73585;SDS011;61865;50.232;18.614;2024-02-21T00:51:03;17.50;;;6.53;;
73585;SDS011;61865;50.232;18.614;2024-02-21T00:53:25;24.00;;;8.57;;
73585;SDS011;61865;50.232;18.614;2024-02-21T00:55:47;29.52;;;12.93;;
73585;SDS011;61865;50.232;18.614;2024-02-21T00:58:10;35.22;;;16.52;;
73585;SDS011;61865;50.232;18.614;2024-02-21T01:00:33;28.67;;;13.98;;
73585;SDS011;61865;50.232;18.614;2024-02-21T01:02:56;23.65;;;13.63;;
73585;SDS011;61865;50.232;18.614;2024-02-21T01:05:18;24.65;;;12.38;;
73585;SDS011;61865;50.232;18.614;2024-02-21T01:07:40;23.35;;;9.18;;
73585;SDS011;61865;50.232;18.614;2024-02-21T01:10:03;17.85;;;8.10;;
73585;SDS011;61865;50.232;18.614;2024-02-21T01:12:25;21.65;;;8.20;;
73585;SDS011;61865;50.232;18.614;2024-02-21T01:14:48;19.92;;;7.97;;
73585;SDS011;61865;50.232;18.614;2024-02-21T01:17:11;21.02;;;10.00;;
73585;SDS011;61865;50.232;18.614;2024-02-21T01:19:34;21.10;;;8.73;;
73585;SDS011;61865;50.232;18.614;2024-02-21T01:21:57;19.15;;;8.30;;
73585;SDS011;61865;50.232;18.614;2024-02-21T01:24:19;21.05;;;7.13;;
73585;SDS011;61865;50.232;18.614;2024-02-21T01:26:42;20.20;;;8.43;;
73585;SDS011;61865;50.232;18.614;2024-02-21T01:29:04;23.98;;;7.93;;
73585;SDS011;61865;50.232;18.614;2024-02-21T01:31:27;18.30;;;8.02;;
73585;SDS011;61865;50.232;18.614;2024-02-21T01:33:51;22.70;;;8.35;;
73585;SDS011;61865;50.232;18.614;2024-02-21T01:36:13;24.98;;;8.68;;
73585;SDS011;61865;50.232;18.614;2024-02-21T01:38:36;20.67;;;9.00;;
73585;SDS011;61865;50.232;18.614;2024-02-21T01:40:58;33.50;;;14.23;;
73585;SDS011;61865;50.232;18.614;2024-02-21T01:43:21;31.70;;;13.88;;
73585;SDS011;61865;50.232;18.614;2024-02-21T01:45:44;31.17;;;13.07;;
73585;SDS011;61865;50.232;18.614;2024-02-21T01:48:08;29.23;;;13.23;;
73585;SDS011;61865;50.232;18.614;2024-02-21T01:50:32;36.05;;;17.85;;
73585;SDS011;61865;50.232;18.614;2024-02-21T01:52:54;53.63;;;22.05;;
73585;SDS011;61865;50.232;18.614;2024-02-21T01:55:16;49.53;;;21.70;;
73585;SDS011;61865;50.232;18.614;2024-02-21T01:57:39;44.60;;;18.13;;
73585;SDS011;61865;50.232;18.614;2024-02-21T02:00:01;38.35;;;12.82;;
73585;SDS011;61865;50.232;18.614;2024-02-21T02:02:24;40.95;;;12.38;;
73585;SDS011;61865;50.232;18.614;2024-02-21T02:04:46;36.40;;;13.48;;
73585;SDS011;61865;50.232;18.614;2024-02-21T02:07:10;32.35;;;11.13;;
73585;SDS011;61865;50.232;18.614;2024-02-21T02:09:32;31.63;;;9.77;;
73585;SDS011;61865;50.232;18.614;2024-02-21T02:11:56;27.48;;;7.85;;
73585;SDS011;61865;50.232;18.614;2024-02-21T02:14:19;21.25;;;7.80;;
73585;SDS011;61865;50.232;18.614;2024-02-21T02:16:41;16.75;;;6.80;;
73585;SDS011;61865;50.232;18.614;2024-02-21T02:19:03;18.95;;;7.43;;
73585;SDS011;61865;50.232;18.614;2024-02-21T02:21:27;16.90;;;7.18;;
73585;SDS011;61865;50.232;18.614;2024-02-21T02:23:52;20.67;;;7.07;;
73585;SDS011;61865;50.232;18.614;2024-02-21T02:26:15;13.82;;;7.15;;
73585;SDS011;61865;50.232;18.614;2024-02-21T02:28:37;14.93;;;6.55;;
73585;SDS011;61865;50.232;18.614;2024-02-21T02:30:59;19.05;;;6.32;;
73585;SDS011;61865;50.232;18.614;2024-02-21T02:33:21;16.77;;;6.72;;
73585;SDS011;61865;50.232;18.614;2024-02-21T02:35:44;30.63;;;9.82;;
73585;SDS011;61865;50.232;18.614;2024-02-21T02:38:06;24.63;;;9.93;;
73585;SDS011;61865;50.232;18.614;2024-02-21T02:40:31;20.17;;;8.32;;
73585;SDS011;61865;50.232;18.614;2024-02-21T02:42:53;32.58;;;9.95;;
73585;SDS011;61865;50.232;18.614;2024-02-21T02:45:16;29.48;;;10.90;;
73585;SDS011;61865;50.232;18.614;2024-02-21T02:47:39;34.17;;;12.15;;
73585;SDS011;61865;50.232;18.614;2024-02-21T02:50:01;28.25;;;9.38;;
73585;SDS011;61865;50.232;18.614;2024-02-21T02:52:24;23.10;;;9.23;;
73585;SDS011;61865;50.232;18.614;2024-02-21T02:54:46;21.40;;;9.50;;
73585;SDS011;61865;50.232;18.614;2024-02-21T02:57:13;22.95;;;8.55;;
73585;SDS011;61865;50.232;18.614;2024-02-21T02:59:35;18.02;;;8.43;;
73585;SDS011;61865;50.232;18.614;2024-02-21T03:01:57;24.48;;;8.25;;
73585;SDS011;61865;50.232;18.614;2024-02-21T03:04:20;19.95;;;8.77;;
73585;SDS011;61865;50.232;18.614;2024-02-21T03:06:42;24.25;;;8.70;;
73585;SDS011;61865;50.232;18.614;2024-02-21T03:09:05;15.07;;;7.70;;
73585;SDS011;61865;50.232;18.614;2024-02-21T03:11:28;29.05;;;8.82;;
73585;SDS011;61865;50.232;18.614;2024-02-21T03:13:52;22.13;;;9.10;;
73585;SDS011;61865;50.232;18.614;2024-02-21T03:16:16;16.13;;;8.73;;
73585;SDS011;61865;50.232;18.614;2024-02-21T03:18:39;22.60;;;9.25;;
73585;SDS011;61865;50.232;18.614;2024-02-21T03:21:03;38.35;;;9.95;;
73585;SDS011;61865;50.232;18.614;2024-02-21T03:23:25;20.25;;;9.10;;
73585;SDS011;61865;50.232;18.614;2024-02-21T03:25:48;24.70;;;9.38;;
73585;SDS011;61865;50.232;18.614;2024-02-21T03:28:10;27.70;;;12.77;;
73585;SDS011;61865;50.232;18.614;2024-02-21T03:30:34;27.60;;;12.52;;
73585;SDS011;61865;50.232;18.614;2024-02-21T03:32:56;25.55;;;11.13;;
73585;SDS011;61865;50.232;18.614;2024-02-21T03:35:19;28.55;;;11.35;;
73585;SDS011;61865;50.232;18.614;2024-02-21T03:37:41;32.67;;;13.65;;
73585;SDS011;61865;50.232;18.614;2024-02-21T03:40:06;23.30;;;11.88;;
73585;SDS011;61865;50.232;18.614;2024-02-21T03:42:28;22.02;;;10.07;;
73585;SDS011;61865;50.232;18.614;2024-02-21T03:44:51;22.80;;;8.32;;
73585;SDS011;61865;50.232;18.614;2024-02-21T03:47:15;20.17;;;9.13;;
73585;SDS011;61865;50.232;18.614;2024-02-21T03:49:37;19.38;;;8.55;;
73585;SDS011;61865;50.232;18.614;2024-02-21T03:51:59;17.73;;;8.10;;
73585;SDS011;61865;50.232;18.614;2024-02-21T03:54:22;27.40;;;9.25;;
73585;SDS011;61865;50.232;18.614;2024-02-21T03:56:44;21.73;;;7.97;;
73585;SDS011;61865;50.232;18.614;2024-02-21T03:59:07;20.65;;;8.60;;
73585;SDS011;61865;50.232;18.614;2024-02-21T04:01:30;24.63;;;10.60;;
73585;SDS011;61865;50.232;18.614;2024-02-21T04:03:53;24.25;;;11.00;;
73585;SDS011;61865;50.232;18.614;2024-02-21T04:06:16;19.42;;;10.15;;
73585;SDS011;61865;50.232;18.614;2024-02-21T04:08:39;19.15;;;9.38;;
73585;SDS011;61865;50.232;18.614;2024-02-21T04:11:01;23.42;;;9.38;;
73585;SDS011;61865;50.232;18.614;2024-02-21T04:13:23;18.75;;;10.20;;
73585;SDS011;61865;50.232;18.614;2024-02-21T04:15:46;17.42;;;9.57;;
73585;SDS011;61865;50.232;18.614;2024-02-21T04:18:08;24.15;;;10.60;;
73585;SDS011;61865;50.232;18.614;2024-02-21T04:20:32;24.42;;;10.80;;
73585;SDS011;61865;50.232;18.614;2024-02-21T04:22:54;16.40;;;10.48;;
73585;SDS011;61865;50.232;18.614;2024-02-21T04:25:16;20.40;;;8.75;;
73585;SDS011;61865;50.232;18.614;2024-02-21T04:27:39;19.40;;;7.88;;
73585;SDS011;61865;50.232;18.614;2024-02-21T04:30:02;19.23;;;8.32;;
73585;SDS011;61865;50.232;18.614;2024-02-21T04:32:24;21.55;;;8.23;;
73585;SDS011;61865;50.232;18.614;2024-02-21T04:34:47;15.85;;;8.35;;
73585;SDS011;61865;50.232;18.614;2024-02-21T04:37:11;17.50;;;8.98;;
73585;SDS011;61865;50.232;18.614;2024-02-21T04:39:33;18.35;;;8.93;;
73585;SDS011;61865;50.232;18.614;2024-02-21T04:41:55;16.45;;;7.95;;
73585;SDS011;61865;50.232;18.614;2024-02-21T04:44:18;17.02;;;8.82;;
73585;SDS011;61865;50.232;18.614;2024-02-21T04:46:42;15.13;;;8.48;;
73585;SDS011;61865;50.232;18.614;2024-02-21T04:49:04;14.23;;;7.82;;
73585;SDS011;61865;50.232;18.614;2024-02-21T04:51:27;19.52;;;8.40;;
73585;SDS011;61865;50.232;18.614;2024-02-21T04:53:50;18.55;;;8.55;;
73585;SDS011;61865;50.232;18.614;2024-02-21T04:56:13;25.10;;;11.32;;
73585;SDS011;61865;50.232;18.614;2024-02-21T04:58:37;22.58;;;9.77;;
73585;SDS011;61865;50.232;18.614;2024-02-21T05:01:00;22.25;;;10.30;;
73585;SDS011;61865;50.232;18.614;2024-02-21T05:03:22;20.73;;;10.38;;
73585;SDS011;61865;50.232;18.614;2024-02-21T05:05:44;20.95;;;10.60;;
73585;SDS011;61865;50.232;18.614;2024-02-21T05:08:07;25.88;;;11.70;;
73585;SDS011;61865;50.232;18.614;2024-02-21T05:10:31;22.27;;;11.80;;
73585;SDS011;61865;50.232;18.614;2024-02-21T05:12:54;26.92;;;13.07;;
73585;SDS011;61865;50.232;18.614;2024-02-21T05:15:16;20.35;;;10.00;;
73585;SDS011;61865;50.232;18.614;2024-02-21T05:17:38;28.55;;;14.30;;
73585;SDS011;61865;50.232;18.614;2024-02-21T05:20:01;24.33;;;11.50;;
73585;SDS011;61865;50.232;18.614;2024-02-21T05:22:23;23.52;;;10.43;;
73585;SDS011;61865;50.232;18.614;2024-02-21T05:24:46;24.13;;;11.02;;
73585;SDS011;61865;50.232;18.614;2024-02-21T05:27:09;19.35;;;9.32;;
73585;SDS011;61865;50.232;18.614;2024-02-21T05:29:32;16.73;;;9.13;;
73585;SDS011;61865;50.232;18.614;2024-02-21T05:31:55;26.38;;;11.65;;
73585;SDS011;61865;50.232;18.614;2024-02-21T05:34:18;26.13;;;10.70;;
73585;SDS011;61865;50.232;18.614;2024-02-21T05:36:41;28.90;;;15.77;;
73585;SDS011;61865;50.232;18.614;2024-02-21T05:39:03;33.72;;;15.02;;
73585;SDS011;61865;50.232;18.614;2024-02-21T05:41:26;33.30;;;18.35;;
73585;SDS011;61865;50.232;18.614;2024-02-21T05:43:50;27.38;;;14.77;;
73585;SDS011;61865;50.232;18.614;2024-02-21T05:46:12;23.60;;;10.60;;
73585;SDS011;61865;50.232;18.614;2024-02-21T05:48:34;24.95;;;13.18;;
73585;SDS011;61865;50.232;18.614;2024-02-21T05:50:57;28.13;;;15.20;;
73585;SDS011;61865;50.232;18.614;2024-02-21T05:53:19;31.00;;;15.70;;
73585;SDS011;61865;50.232;18.614;2024-02-21T05:55:41;27.63;;;16.65;;
73585;SDS011;61865;50.232;18.614;2024-02-21T05:58:04;25.05;;;16.33;;
73585;SDS011;61865;50.232;18.614;2024-02-21T06:00:28;28.02;;;16.90;;
73585;SDS011;61865;50.232;18.614;2024-02-21T06:02:50;27.52;;;17.10;;
73585;SDS011;61865;50.232;18.614;2024-02-21T06:05:13;35.55;;;19.15;;
73585;SDS011;61865;50.232;18.614;2024-02-21T06:07:35;35.70;;;18.38;;
73585;SDS011;61865;50.232;18.614;2024-02-21T06:09:57;39.78;;;19.25;;
73585;SDS011;61865;50.232;18.614;2024-02-21T06:12:20;28.13;;;15.27;;
73585;SDS011;61865;50.232;18.614;2024-02-21T06:14:42;35.63;;;16.17;;
73585;SDS011;61865;50.232;18.614;2024-02-21T06:17:06;43.17;;;19.27;;
73585;SDS011;61865;50.232;18.614;2024-02-21T06:19:28;34.67;;;20.52;;
73585;SDS011;61865;50.232;18.614;2024-02-21T06:21:50;38.13;;;22.65;;
73585;SDS011;61865;50.232;18.614;2024-02-21T06:24:13;47.50;;;26.05;;
73585;SDS011;61865;50.232;18.614;2024-02-21T06:26:35;42.17;;;22.85;;
73585;SDS011;61865;50.232;18.614;2024-02-21T06:28:57;31.58;;;18.98;;
73585;SDS011;61865;50.232;18.614;2024-02-21T06:31:21;31.73;;;18.40;;
73585;SDS011;61865;50.232;18.614;2024-02-21T06:33:45;32.08;;;18.60;;
73585;SDS011;61865;50.232;18.614;2024-02-21T06:36:07;29.33;;;17.85;;
73585;SDS011;61865;50.232;18.614;2024-02-21T06:38:30;36.40;;;19.00;;
73585;SDS011;61865;50.232;18.614;2024-02-21T06:40:54;30.08;;;17.00;;
73585;SDS011;61865;50.232;18.614;2024-02-21T06:43:16;35.53;;;18.00;;
73585;SDS011;61865;50.232;18.614;2024-02-21T06:45:39;36.10;;;20.20;;
73585;SDS011;61865;50.232;18.614;2024-02-21T06:48:02;38.88;;;20.88;;
73585;SDS011;61865;50.232;18.614;2024-02-21T06:50:26;41.35;;;20.58;;
73585;SDS011;61865;50.232;18.614;2024-02-21T06:52:48;36.95;;;19.35;;
73585;SDS011;61865;50.232;18.614;2024-02-21T06:55:10;38.60;;;20.52;;
73585;SDS011;61865;50.232;18.614;2024-02-21T06:57:33;29.17;;;19.48;;
73585;SDS011;61865;50.232;18.614;2024-02-21T06:59:55;38.45;;;19.60;;
73585;SDS011;61865;50.232;18.614;2024-02-21T07:02:17;31.17;;;19.27;;
73585;SDS011;61865;50.232;18.614;2024-02-21T07:04:40;34.80;;;17.80;;
73585;SDS011;61865;50.232;18.614;2024-02-21T07:07:05;32.28;;;17.60;;
73585;SDS011;61865;50.232;18.614;2024-02-21T07:09:27;36.22;;;18.65;;
73585;SDS011;61865;50.232;18.614;2024-02-21T07:11:51;34.45;;;18.60;;
73585;SDS011;61865;50.232;18.614;2024-02-21T07:14:14;30.90;;;17.33;;
73585;SDS011;61865;50.232;18.614;2024-02-21T07:16:36;35.90;;;17.52;;
73585;SDS011;61865;50.232;18.614;2024-02-21T07:18:58;32.72;;;18.40;;
73585;SDS011;61865;50.232;18.614;2024-02-21T07:21:21;33.13;;;17.02;;
73585;SDS011;61865;50.232;18.614;2024-02-21T07:23:45;36.10;;;18.95;;
73585;SDS011;61865;50.232;18.614;2024-02-21T07:26:07;32.58;;;15.90;;
73585;SDS011;61865;50.232;18.614;2024-02-21T07:28:29;34.80;;;16.80;;
73585;SDS011;61865;50.232;18.614;2024-02-21T07:30:51;34.95;;;17.58;;
73585;SDS011;61865;50.232;18.614;2024-02-21T07:33:14;31.40;;;15.73;;
73585;SDS011;61865;50.232;18.614;2024-02-21T07:35:36;31.92;;;16.20;;
73585;SDS011;61865;50.232;18.614;2024-02-21T07:38:03;31.85;;;16.13;;
73585;SDS011;61865;50.232;18.614;2024-02-21T07:40:28;29.92;;;16.95;;
73585;SDS011;61865;50.232;18.614;2024-02-21T07:42:51;32.75;;;16.33;;
73585;SDS011;61865;50.232;18.614;2024-02-21T07:45:13;34.35;;;17.10;;
73585;SDS011;61865;50.232;18.614;2024-02-21T07:47:36;36.50;;;16.00;;
73585;SDS011;61865;50.232;18.614;2024-02-21T07:49:58;32.67;;;18.52;;
73585;SDS011;61865;50.232;18.614;2024-02-21T07:52:21;28.48;;;15.90;;
73585;SDS011;61865;50.232;18.614;2024-02-21T07:54:43;36.78;;;16.90;;
73585;SDS011;61865;50.232;18.614;2024-02-21T07:57:07;32.75;;;16.50;;
73585;SDS011;61865;50.232;18.614;2024-02-21T07:59:29;31.67;;;14.93;;
73585;SDS011;61865;50.232;18.614;2024-02-21T08:01:51;26.63;;;14.98;;
73585;SDS011;61865;50.232;18.614;2024-02-21T08:04:14;36.47;;;15.40;;
73585;SDS011;61865;50.232;18.614;2024-02-21T08:06:36;30.20;;;14.65;;
73585;SDS011;61865;50.232;18.614;2024-02-21T08:08:58;35.08;;;15.50;;
73585;SDS011;61865;50.232;18.614;2024-02-21T08:11:22;24.27;;;12.77;;
73585;SDS011;61865;50.232;18.614;2024-02-21T08:13:46;30.73;;;13.52;;
73585;SDS011;61865;50.232;18.614;2024-02-21T08:16:08;32.72;;;13.52;;
73585;SDS011;61865;50.232;18.614;2024-02-21T08:18:31;29.38;;;14.05;;
73585;SDS011;61865;50.232;18.614;2024-02-21T08:20:56;32.42;;;11.88;;
73585;SDS011;61865;50.232;18.614;2024-02-21T08:23:18;29.42;;;12.38;;
73585;SDS011;61865;50.232;18.614;2024-02-21T08:25:42;27.50;;;12.40;;
73585;SDS011;61865;50.232;18.614;2024-02-21T08:28:04;23.58;;;12.15;;
73585;SDS011;61865;50.232;18.614;2024-02-21T08:30:29;28.55;;;13.50;;
73585;SDS011;61865;50.232;18.614;2024-02-21T08:32:53;30.48;;;14.27;;
73585;SDS011;61865;50.232;18.614;2024-02-21T08:35:16;36.67;;;15.52;;
73585;SDS011;61865;50.232;18.614;2024-02-21T08:37:38;33.95;;;13.15;;
73585;SDS011;61865;50.232;18.614;2024-02-21T08:40:02;26.90;;;14.77;;
73585;SDS011;61865;50.232;18.614;2024-02-21T08:42:28;26.55;;;12.15;;
73585;SDS011;61865;50.232;18.614;2024-02-21T08:44:50;30.08;;;12.50;;
73585;SDS011;61865;50.232;18.614;2024-02-21T08:47:14;27.60;;;10.95;;
73585;SDS011;61865;50.232;18.614;2024-02-21T08:49:37;29.23;;;12.35;;
73585;SDS011;61865;50.232;18.614;2024-02-21T08:51:59;21.02;;;8.85;;
73585;SDS011;61865;50.232;18.614;2024-02-21T08:54:21;19.10;;;9.55;;
73585;SDS011;61865;50.232;18.614;2024-02-21T08:56:44;23.88;;;10.30;;
73585;SDS011;61865;50.232;18.614;2024-02-21T08:59:06;27.13;;;10.88;;
73585;SDS011;61865;50.232;18.614;2024-02-21T09:01:28;21.40;;;10.73;;
73585;SDS011;61865;50.232;18.614;2024-02-21T09:03:52;18.85;;;10.15;;
73585;SDS011;61865;50.232;18.614;2024-02-21T09:06:16;22.05;;;9.63;;
73585;SDS011;61865;50.232;18.614;2024-02-21T09:08:39;22.75;;;9.85;;
73585;SDS011;61865;50.232;18.614;2024-02-21T09:11:02;15.65;;;7.97;;
73585;SDS011;61865;50.232;18.614;2024-02-21T09:13:24;21.42;;;9.50;;
73585;SDS011;61865;50.232;18.614;2024-02-21T09:15:47;21.00;;;8.85;;
73585;SDS011;61865;50.232;18.614;2024-02-21T09:18:09;25.10;;;10.25;;
73585;SDS011;61865;50.232;18.614;2024-02-21T09:20:33;25.55;;;10.27;;
73585;SDS011;61865;50.232;18.614;2024-02-21T09:22:55;16.90;;;7.88;;
73585;SDS011;61865;50.232;18.614;2024-02-21T09:25:18;13.73;;;7.22;;
73585;SDS011;61865;50.232;18.614;2024-02-21T09:27:40;18.65;;;7.35;;
73585;SDS011;61865;50.232;18.614;2024-02-21T09:30:02;22.48;;;7.68;;
73585;SDS011;61865;50.232;18.614;2024-02-21T09:32:25;12.32;;;6.03;;
73585;SDS011;61865;50.232;18.614;2024-02-21T09:34:47;17.75;;;7.25;;
73585;SDS011;61865;50.232;18.614;2024-02-21T09:37:11;21.30;;;7.22;;
73585;SDS011;61865;50.232;18.614;2024-02-21T09:39:34;14.43;;;6.03;;
73585;SDS011;61865;50.232;18.614;2024-02-21T09:41:58;11.70;;;5.65;;
73585;SDS011;61865;50.232;18.614;2024-02-21T09:44:20;13.57;;;6.03;;
73585;SDS011;61865;50.232;18.614;2024-02-21T09:46:44;16.33;;;6.47;;
73585;SDS011;61865;50.232;18.614;2024-02-21T09:51:47;17.38;;;6.00;;
73585;SDS011;61865;50.232;18.614;2024-02-21T09:54:13;19.15;;;7.13;;
73585;SDS011;61865;50.232;18.614;2024-02-21T09:56:35;16.27;;;6.20;;
73585;SDS011;61865;50.232;18.614;2024-02-21T09:58:58;19.10;;;5.85;;
73585;SDS011;61865;50.232;18.614;2024-02-21T10:01:20;13.77;;;5.57;;
73585;SDS011;61865;50.232;18.614;2024-02-21T10:03:42;14.00;;;6.20;;
73585;SDS011;61865;50.232;18.614;2024-02-21T10:06:05;14.80;;;5.97;;
73585;SDS011;61865;50.232;18.614;2024-02-21T10:08:28;15.68;;;5.57;;
73585;SDS011;61865;50.232;18.614;2024-02-21T10:10:52;13.48;;;5.32;;
73585;SDS011;61865;50.232;18.614;2024-02-21T10:13:23;11.35;;;5.25;;
73585;SDS011;61865;50.232;18.614;2024-02-21T10:15:46;14.27;;;5.55;;
73585;SDS011;61865;50.232;18.614;2024-02-21T10:18:10;14.35;;;5.47;;
73585;SDS011;61865;50.232;18.614;2024-02-21T10:20:32;17.35;;;6.45;;
73585;SDS011;61865;50.232;18.614;2024-02-21T10:23:00;13.63;;;5.40;;
73585;SDS011;61865;50.232;18.614;2024-02-21T10:25:23;16.52;;;6.00;;
73585;SDS011;61865;50.232;18.614;2024-02-21T10:27:47;14.38;;;4.80;;
73585;SDS011;61865;50.232;18.614;2024-02-21T10:30:12;21.02;;;5.82;;
73585;SDS011;61865;50.232;18.614;2024-02-21T10:32:36;15.88;;;5.45;;
73585;SDS011;61865;50.232;18.614;2024-02-21T10:35:01;11.90;;;5.45;;
73585;SDS011;61865;50.232;18.614;2024-02-21T10:37:24;9.75;;;4.00;;
73585;SDS011;61865;50.232;18.614;2024-02-21T10:39:47;10.45;;;4.07;;
73585;SDS011;61865;50.232;18.614;2024-02-21T10:42:10;7.18;;;3.75;;
73585;SDS011;61865;50.232;18.614;2024-02-21T10:44:36;11.75;;;4.68;;
73585;SDS011;61865;50.232;18.614;2024-02-21T10:46:59;14.07;;;4.13;;
73585;SDS011;61865;50.232;18.614;2024-02-21T10:49:26;8.77;;;4.32;;
73585;SDS011;61865;50.232;18.614;2024-02-21T10:51:49;12.93;;;4.68;;
73585;SDS011;61865;50.232;18.614;2024-02-21T10:54:18;11.88;;;4.82;;
73585;SDS011;61865;50.232;18.614;2024-02-21T10:56:44;11.32;;;3.80;;
73585;SDS011;61865;50.232;18.614;2024-02-21T10:59:07;19.23;;;5.18;;
73585;SDS011;61865;50.232;18.614;2024-02-21T11:01:31;9.05;;;4.18;;
73585;SDS011;61865;50.232;18.614;2024-02-21T11:03:55;13.27;;;4.57;;
73585;SDS011;61865;50.232;18.614;2024-02-21T11:06:19;11.63;;;5.05;;
73585;SDS011;61865;50.232;18.614;2024-02-21T11:08:42;14.57;;;5.32;;
73585;SDS011;61865;50.232;18.614;2024-02-21T11:11:04;19.65;;;5.25;;
73585;SDS011;61865;50.232;18.614;2024-02-21T11:13:30;11.70;;;4.80;;
73585;SDS011;61865;50.232;18.614;2024-02-21T11:15:53;12.80;;;4.80;;
73585;SDS011;61865;50.232;18.614;2024-02-21T11:18:24;12.55;;;4.78;;
73585;SDS011;61865;50.232;18.614;2024-02-21T11:20:49;14.60;;;4.77;;
73585;SDS011;61865;50.232;18.614;2024-02-21T11:23:12;12.80;;;4.95;;
73585;SDS011;61865;50.232;18.614;2024-02-21T11:25:34;13.48;;;5.00;;
73585;SDS011;61865;50.232;18.614;2024-02-21T11:28:00;13.15;;;6.38;;
73585;SDS011;61865;50.232;18.614;2024-02-21T11:30:26;12.80;;;5.85;;
73585;SDS011;61865;50.232;18.614;2024-02-21T11:32:48;13.43;;;4.95;;
73585;SDS011;61865;50.232;18.614;2024-02-21T11:35:18;11.30;;;5.07;;
73585;SDS011;61865;50.232;18.614;2024-02-21T11:37:41;12.57;;;5.90;;
73585;SDS011;61865;50.232;18.614;2024-02-21T11:40:06;13.25;;;5.30;;
73585;SDS011;61865;50.232;18.614;2024-02-21T11:42:30;13.93;;;5.18;;
73585;SDS011;61865;50.232;18.614;2024-02-21T11:44:52;7.80;;;4.70;;
73585;SDS011;61865;50.232;18.614;2024-02-21T11:47:17;17.13;;;6.53;;
73585;SDS011;61865;50.232;18.614;2024-02-21T11:49:43;11.70;;;4.63;;
73585;SDS011;61865;50.232;18.614;2024-02-21T11:52:08;11.38;;;4.15;;
73585;SDS011;61865;50.232;18.614;2024-02-21T11:54:30;14.30;;;5.10;;
73585;SDS011;61865;50.232;18.614;2024-02-21T11:56:53;11.73;;;5.50;;
73585;SDS011;61865;50.232;18.614;2024-02-21T11:59:15;17.73;;;7.18;;
73585;SDS011;61865;50.232;18.614;2024-02-21T12:01:37;14.05;;;5.20;;
73585;SDS011;61865;50.232;18.614;2024-02-21T12:04:00;14.68;;;5.90;;
73585;SDS011;61865;50.232;18.614;2024-02-21T12:06:25;14.27;;;5.72;;
73585;SDS011;61865;50.232;18.614;2024-02-21T12:08:49;10.80;;;5.53;;
73585;SDS011;61865;50.232;18.614;2024-02-21T12:11:19;14.20;;;5.80;;
73585;SDS011;61865;50.232;18.614;2024-02-21T12:13:42;15.75;;;5.65;;
73585;SDS011;61865;50.232;18.614;2024-02-21T12:16:04;20.05;;;6.72;;
73585;SDS011;61865;50.232;18.614;2024-02-21T12:18:27;15.48;;;6.50;;
73585;SDS011;61865;50.232;18.614;2024-02-21T12:20:49;17.60;;;6.30;;
73585;SDS011;61865;50.232;18.614;2024-02-21T12:23:12;12.05;;;5.38;;
73585;SDS011;61865;50.232;18.614;2024-02-21T12:25:35;11.93;;;5.75;;
73585;SDS011;61865;50.232;18.614;2024-02-21T12:27:58;15.10;;;6.57;;
73585;SDS011;61865;50.232;18.614;2024-02-21T12:30:24;20.63;;;7.35;;
73585;SDS011;61865;50.232;18.614;2024-02-21T12:32:46;19.77;;;6.70;;
73585;SDS011;61865;50.232;18.614;2024-02-21T12:35:09;15.38;;;6.13;;
73585;SDS011;61865;50.232;18.614;2024-02-21T12:37:31;19.02;;;6.53;;
73585;SDS011;61865;50.232;18.614;2024-02-21T12:39:54;14.27;;;6.45;;
73585;SDS011;61865;50.232;18.614;2024-02-21T12:42:17;12.52;;;6.15;;
73585;SDS011;61865;50.232;18.614;2024-02-21T12:44:40;16.55;;;6.43;;
73585;SDS011;61865;50.232;18.614;2024-02-21T12:47:02;21.67;;;7.05;;
73585;SDS011;61865;50.232;18.614;2024-02-21T12:49:24;24.45;;;7.05;;
73585;SDS011;61865;50.232;18.614;2024-02-21T12:51:49;14.45;;;6.20;;
73585;SDS011;61865;50.232;18.614;2024-02-21T12:54:12;15.52;;;6.50;;
73585;SDS011;61865;50.232;18.614;2024-02-21T12:56:34;16.80;;;7.28;;
73585;SDS011;61865;50.232;18.614;2024-02-21T12:59:03;17.35;;;6.85;;
73585;SDS011;61865;50.232;18.614;2024-02-21T13:01:25;16.58;;;6.85;;
73585;SDS011;61865;50.232;18.614;2024-02-21T13:03:48;26.80;;;8.88;;
73585;SDS011;61865;50.232;18.614;2024-02-21T13:06:10;18.92;;;7.13;;
73585;SDS011;61865;50.232;18.614;2024-02-21T13:08:32;13.77;;;6.78;;
73585;SDS011;61865;50.232;18.614;2024-02-21T13:10:55;15.45;;;6.18;;
73585;SDS011;61865;50.232;18.614;2024-02-21T13:13:18;18.90;;;6.90;;
73585;SDS011;61865;50.232;18.614;2024-02-21T13:15:42;16.02;;;5.78;;
73585;SDS011;61865;50.232;18.614;2024-02-21T13:18:04;20.38;;;6.97;;
73585;SDS011;61865;50.232;18.614;2024-02-21T13:20:26;22.13;;;7.05;;
73585;SDS011;61865;50.232;18.614;2024-02-21T13:22:49;16.10;;;6.85;;
73585;SDS011;61865;50.232;18.614;2024-02-21T13:25:11;15.93;;;6.57;;
73585;SDS011;61865;50.232;18.614;2024-02-21T13:27:38;25.23;;;8.65;;
73585;SDS011;61865;50.232;18.614;2024-02-21T13:30:00;17.05;;;7.18;;
73585;SDS011;61865;50.232;18.614;2024-02-21T13:32:27;17.08;;;7.50;;
73585;SDS011;61865;50.232;18.614;2024-02-21T13:34:49;18.88;;;7.45;;
73585;SDS011;61865;50.232;18.614;2024-02-21T13:37:12;21.55;;;7.80;;
73585;SDS011;61865;50.232;18.614;2024-02-21T13:39:35;17.75;;;6.97;;
73585;SDS011;61865;50.232;18.614;2024-02-21T13:41:57;20.45;;;8.27;;
73585;SDS011;61865;50.232;18.614;2024-02-21T13:44:19;22.85;;;7.65;;
73585;SDS011;61865;50.232;18.614;2024-02-21T13:46:41;18.92;;;8.02;;
73585;SDS011;61865;50.232;18.614;2024-02-21T13:49:05;20.10;;;7.70;;
73585;SDS011;61865;50.232;18.614;2024-02-21T13:51:27;22.70;;;7.38;;
73585;SDS011;61865;50.232;18.614;2024-02-21T13:53:50;23.75;;;7.90;;